createdAt,value
2023-09-05T11:27:58.623Z,554.70
2023-09-05T11:42:26.023Z,595.13
2023-09-05T11:44:52.547Z,260.95
2023-09-05T12:48:52.307Z,22.70
2023-09-05T14:01:55.680Z,11.80
2023-09-05T14:04:22.183Z,64.57
2023-09-05T14:06:48.671Z,68.30
2023-09-05T15:38:33.522Z,17.08
2023-09-05T15:54:45.240Z,492.17
2023-09-05T15:57:11.883Z,426.60
2023-09-05T15:59:41.548Z,509.85
2023-09-05T16:02:08.086Z,332.55
2023-09-05T16:04:34.523Z,417.55
2023-09-05T16:07:00.991Z,346.65
2023-09-05T16:09:27.507Z,138.33
2023-09-05T16:11:53.920Z,167.20
2023-09-05T16:14:20.305Z,184.65
2023-09-05T16:16:47.316Z,135.50
2023-09-05T16:19:14.022Z,392.05
2023-09-05T16:24:11.482Z,124.25
2023-09-05T16:27:15.006Z,25.00
2023-09-05T16:31:47.990Z,491.80
2023-09-05T16:34:14.484Z,399.50
2023-09-05T16:38:41.629Z,65.47
2023-09-05T16:41:17.054Z,47.03
2023-09-05T16:43:43.522Z,23.60
2023-09-05T16:46:13.682Z,21.83
2023-09-05T16:48:40.157Z,21.80
2023-09-05T16:52:04.392Z,107.13
2023-09-05T16:54:30.892Z,34.80
2023-09-05T16:56:57.324Z,88.97
2023-09-05T16:59:23.732Z,289.58
2023-09-05T17:01:50.217Z,95.72
2023-09-05T17:04:16.710Z,186.03
2023-09-05T17:06:43.318Z,223.48
2023-09-05T17:09:09.906Z,154.25
2023-09-05T17:11:36.463Z,263.73
2023-09-05T17:14:03.504Z,58.72
2023-09-05T17:16:29.926Z,205.37
2023-09-05T17:18:56.433Z,295.63
2023-09-05T17:21:22.880Z,475.08
2023-09-05T17:23:49.375Z,484.80
2023-09-05T17:26:15.753Z,492.17
2023-09-05T17:28:42.211Z,413.77
2023-09-05T17:31:08.818Z,183.15
2023-09-05T17:33:35.322Z,559.55
2023-09-05T17:36:01.872Z,570.78
2023-09-05T17:38:28.550Z,508.40
2023-09-05T17:40:55.062Z,351.07
2023-09-05T17:43:21.523Z,302.25
2023-09-05T17:45:47.990Z,352.45
2023-09-05T17:48:17.231Z,311.77
2023-09-05T17:50:45.502Z,468.05
2023-09-05T17:53:12.188Z,424.60
2023-09-05T17:55:41.760Z,507.77
2023-09-05T17:58:08.305Z,554.03
2023-09-05T18:00:35.485Z,597.97
2023-09-05T18:03:01.993Z,565.95
2023-09-05T18:05:28.452Z,564.47
2023-09-05T18:07:54.817Z,564.80
2023-09-05T18:10:21.326Z,576.03
2023-09-05T18:12:47.856Z,645.03
2023-09-05T18:15:14.889Z,753.42
2023-09-05T18:17:41.268Z,619.00
2023-09-05T18:20:08.126Z,503.77
2023-09-05T18:22:34.598Z,611.53
2023-09-05T18:25:00.961Z,454.60
2023-09-05T18:27:27.432Z,448.05
2023-09-05T18:29:53.872Z,232.70
2023-09-05T18:32:20.269Z,232.38
2023-09-05T18:34:47.009Z,264.15
2023-09-05T18:37:14.417Z,60.78
2023-09-05T18:39:40.926Z,72.60
2023-09-05T18:42:07.743Z,73.33
2023-09-05T18:44:34.194Z,165.85
2023-09-05T18:47:00.968Z,326.88
2023-09-05T18:49:27.413Z,319.63
2023-09-05T18:51:53.971Z,328.77
2023-09-05T18:54:20.568Z,305.23
2023-09-05T18:56:47.043Z,229.95
2023-09-05T18:59:13.432Z,130.80
2023-09-05T19:01:39.915Z,110.90
2023-09-05T19:04:06.697Z,125.55
2023-09-05T19:06:33.153Z,125.73
2023-09-05T19:08:59.560Z,216.45
2023-09-05T19:11:26.031Z,210.18
2023-09-05T19:13:52.429Z,153.70
2023-09-05T19:16:18.935Z,483.48
2023-09-05T19:18:45.695Z,63.70
2023-09-05T19:21:12.202Z,421.10
2023-09-05T19:23:38.614Z,355.50
2023-09-05T19:26:06.407Z,629.67
2023-09-05T19:28:33.193Z,621.40
2023-09-05T19:30:59.612Z,614.00
2023-09-05T19:33:26.726Z,654.95
2023-09-05T19:35:53.210Z,650.55
2023-09-05T19:38:19.768Z,683.13
2023-09-05T19:40:46.264Z,401.73
2023-09-05T19:43:12.698Z,642.47
2023-09-05T19:45:39.157Z,720.85
2023-09-05T19:48:05.757Z,609.00
2023-09-05T19:50:32.451Z,704.92
2023-09-05T19:52:58.934Z,571.58
2023-09-05T19:55:25.350Z,614.70
2023-09-05T19:57:51.830Z,613.20
2023-09-05T20:00:18.339Z,579.80
2023-09-05T20:02:44.991Z,373.63
2023-09-05T20:05:11.452Z,380.85
2023-09-05T20:07:37.843Z,663.17
2023-09-05T20:10:04.532Z,377.55
2023-09-05T20:12:31.118Z,532.03
2023-09-05T20:14:57.576Z,469.27
2023-09-05T20:17:26.206Z,450.60
2023-09-05T20:19:54.006Z,433.50
2023-09-05T20:22:20.420Z,430.70
2023-09-05T20:24:46.909Z,447.73
2023-09-05T20:27:13.469Z,384.58
2023-09-05T20:29:39.872Z,366.58
2023-09-05T20:32:06.458Z,381.17
2023-09-05T20:34:33.561Z,421.23
2023-09-05T20:37:01.063Z,278.50
2023-09-05T20:39:27.562Z,48.70
2023-09-05T20:41:54.014Z,81.07
2023-09-05T20:44:20.395Z,111.73
2023-09-05T20:46:46.923Z,85.68
2023-09-05T20:49:13.522Z,41.50
2023-09-05T20:51:40.281Z,34.55
2023-09-05T20:54:06.955Z,32.58
2023-09-05T20:56:33.374Z,71.57
2023-09-05T20:58:59.790Z,151.13
2023-09-05T21:01:26.643Z,201.05
2023-09-05T21:03:53.357Z,675.80
2023-09-05T21:06:19.996Z,662.80
2023-09-05T21:08:46.466Z,745.23
2023-09-05T21:11:12.847Z,678.33
2023-09-05T21:13:39.240Z,761.15
2023-09-05T21:16:05.785Z,798.75
2023-09-05T21:18:32.429Z,250.23
2023-09-05T21:20:58.886Z,248.23
2023-09-05T21:24:37.860Z,258.27
2023-09-05T21:27:04.464Z,416.77
2023-09-05T21:29:30.852Z,409.70
2023-09-05T21:31:57.450Z,405.47
2023-09-05T21:38:17.498Z,538.28
2023-09-05T21:40:44.022Z,608.05
2023-09-05T22:04:06.141Z,160.48
2023-09-05T22:06:32.656Z,237.35
2023-09-05T22:10:55.422Z,299.58
2023-09-05T22:15:34.892Z,130.82
2023-09-05T22:28:39.534Z,151.65
2023-09-05T22:31:06.155Z,329.42
2023-09-05T22:33:32.984Z,173.75
2023-09-05T22:36:33.800Z,85.17
2023-09-05T22:39:00.436Z,496.20
2023-09-05T22:41:26.833Z,176.48
2023-09-05T22:43:53.337Z,268.10
2023-09-05T22:46:19.787Z,291.85
2023-09-05T22:48:46.272Z,449.73
2023-09-05T22:51:19.019Z,627.20
2023-09-05T22:53:45.416Z,630.92
2023-09-05T22:56:12.589Z,414.48
2023-09-05T22:58:39.174Z,500.92
2023-09-05T23:01:05.906Z,591.97
2023-09-05T23:03:33.715Z,643.37
2023-09-05T23:08:31.567Z,446.13
2023-09-05T23:10:58.078Z,602.75
2023-09-05T23:13:24.464Z,610.15
2023-09-05T23:15:51.069Z,331.33
2023-09-05T23:18:17.631Z,449.37
2023-09-05T23:20:46.572Z,443.00
2023-09-05T23:23:13.002Z,458.55
2023-09-05T23:25:39.422Z,493.55
2023-09-05T23:28:05.876Z,632.35
2023-09-05T23:30:32.623Z,521.10
2023-09-05T23:32:59.085Z,556.63
2023-09-05T23:35:25.611Z,512.90
2023-09-05T23:37:52.124Z,382.08
2023-09-05T23:40:18.561Z,414.02
2023-09-05T23:42:45.030Z,397.60
2023-09-05T23:45:12.296Z,432.73
2023-09-05T23:47:38.682Z,481.35
2023-09-05T23:50:05.243Z,393.10
2023-09-05T23:52:31.806Z,374.73
2023-09-05T23:54:58.281Z,385.90
2023-09-05T23:57:24.723Z,396.67
2023-09-05T23:59:51.229Z,375.58
